Loch Glascanoch, United Kingdom

3:58 AM GMT on December 08, 2016 (GMT +0000)
Garve | | Change Station

Elev 262 ft 57.62 °N, 4.69 °W | Updated 3 seconds ago

Partly Cloudy
Partly Cloudy
51.6 °F
Feels Like 51.6 °F
N
0.0
Wind Variable Wind from SW
Gusts 0.0 mph

Today
High -- | Low -- °F
--% Chance of Precip.
Yesterday
High -- | Low -- °F
Precip. -- in
Pressure 29.86 in
Visibility 6.2 miles
Clouds Few 1400 ft
Dew Point 45 °F
Humidity 77%
Rainfall 0.00 in
Snow Depth Not available.
8:49 AM 3:33 PM
First Quarter, 59% visible
METAR EGPE 080350Z 25022KT 9999 FEW014 10/08 Q1011
Pressure 29.86 in
Visibility 6.2 miles
Clouds Few 1400 ft
Dew Point 45 °F
Humidity 77%
Rainfall 0.00 in
Snow Depth Not available.
8:49 AM 3:33 PM
First Quarter, 59% visible
METAR EGPE 080350Z 25022KT 9999 FEW014 10/08 Q1011

10-Day Weather Forecast

×

Almanac

Astronomy

Dec. 08, 2016 Rise Set
Actual Time
Civil Twilight
Nautical Twilight
Astronomical Twilight
Moon
Length of Visible Light
Length of Day
Tomorrow will be .
, % of the Moon is Illuminated

Today's Extremes

Country Highs Country Lows

Community

WunderPhotos

Upload Photos

1,956,259 photos uploaded!

WunderBlog® & News

Nearby

Air Quality

  Air Quality AQ Index Pollutant
Not available.

Snow Depth

Station Depth Elevation

Earthquake Activity

City Distance Mag. Time & Date
Minimum magnitude displayed is 2.5.

Coastal Water Temperatures

Place Temperature

Stations

Nearby Weather Stations

Station Location Temp. Windchill Dew Point Humidity Wind Precip. Elev Updated Type